Time;durP1;ratioP1;P1;durP2;ratioP2;P2;SDS_P1;SDS_P2;PMS_P1;PMS_P2;Temp;Humidity;BMP_temperature;BMP_pressure;BME280_temperature;BME280_humidity;BME280_pressure;Samples;Min_cycle;Max_cycle;Signal;HPM_P1;HPM_P2
2021/07/01 00:00:17;;;;;;;5.55;4.15;;;24.20;63.10;;;;;;4933357;28;88692;-27
2021/07/01 00:02:43;;;;;;;6.13;4.25;;;24.20;63.10;;;;;;4934035;28;88811;-28
2021/07/01 00:05:12;;;;;;;6.10;4.35;;;24.20;63.20;;;;;;4934541;28;88362;-21
2021/07/01 00:07:39;;;;;;;5.15;4.05;;;24.10;63.10;;;;;;4933535;28;87292;-20
2021/07/01 00:10:26;;;;;;;4.47;3.53;;;24.10;63.10;;;;;;4933705;28;88642;-24
2021/07/01 00:12:53;;;;;;;4.30;3.72;;;24.10;63.10;;;;;;4933322;28;89025;-22
2021/07/01 00:15:22;;;;;;;4.45;3.47;;;24.10;63.10;;;;;;4934300;28;88120;-22
2021/07/01 00:17:48;;;;;;;3.78;3.38;;;24.10;63.10;;;;;;4934083;28;87541;-26
2021/07/01 00:20:14;;;;;;;6.00;4.00;;;24.10;63.10;;;;;;4933187;28;89607;-23
2021/07/01 00:22:40;;;;;;;5.53;4.13;;;24.10;63.10;;;;;;4929056;28;87171;-34
2021/07/01 00:25:07;;;;;;;7.07;4.40;;;24.10;63.10;;;;;;4914958;28;88956;-20
2021/07/01 00:27:33;;;;;;;4.07;3.67;;;24.10;63.10;;;;;;4914472;28;87457;-28
2021/07/01 00:29:59;;;;;;;5.20;3.90;;;24.10;63.10;;;;;;4912567;28;88655;-32
2021/07/01 00:32:24;;;;;;;3.72;3.42;;;24.10;63.20;;;;;;4913935;28;87954;-21
2021/07/01 00:34:50;;;;;;;4.35;3.67;;;24.10;63.10;;;;;;4914141;28;87364;-21
2021/07/01 00:37:16;;;;;;;4.20;3.78;;;24.10;63.10;;;;;;4913278;28;88324;-23
2021/07/01 00:39:41;;;;;;;4.88;3.75;;;24.10;63.10;;;;;;4914287;28;87812;-20
2021/07/01 00:42:07;;;;;;;4.82;3.75;;;24.10;63.10;;;;;;4914853;28;89759;-20
2021/07/01 00:44:33;;;;;;;5.45;4.13;;;24.10;63.20;;;;;;4914591;28;87663;-19
2021/07/01 00:46:58;;;;;;;4.43;3.58;;;24.10;63.20;;;;;;4914319;28;88117;-32
2021/07/01 00:49:24;;;;;;;5.53;3.80;;;24.10;63.20;;;;;;4913755;28;89015;-19
2021/07/01 00:51:51;;;;;;;4.70;3.22;;;24.00;63.10;;;;;;4914132;28;88276;-18
2021/07/01 00:54:17;;;;;;;6.70;4.03;;;24.00;63.10;;;;;;4914513;28;87620;-32
2021/07/01 00:56:43;;;;;;;4.47;3.70;;;24.10;63.20;;;;;;4914252;28;87685;-20
2021/07/01 00:59:09;;;;;;;5.47;3.55;;;24.00;63.10;;;;;;4913815;28;88243;-23
2021/07/01 01:01:35;;;;;;;4.22;3.63;;;24.00;63.10;;;;;;4912906;28;87865;-25
2021/07/01 01:04:02;;;;;;;5.40;3.83;;;24.00;63.10;;;;;;4912057;28;88487;-23
2021/07/01 01:06:27;;;;;;;4.57;3.83;;;24.00;63.10;;;;;;4913640;28;87517;-31
2021/07/01 01:08:54;;;;;;;4.43;3.60;;;24.00;63.10;;;;;;4913027;28;87717;-19
2021/07/01 01:11:24;;;;;;;4.68;3.58;;;24.00;63.10;;;;;;4912997;28;87798;-24
2021/07/01 01:13:51;;;;;;;5.50;3.78;;;24.00;63.10;;;;;;4910843;28;89145;-32
2021/07/01 01:16:18;;;;;;;4.88;3.33;;;24.00;63.10;;;;;;4912815;28;87331;-22
2021/07/01 01:18:44;;;;;;;4.50;3.75;;;24.00;63.20;;;;;;4912331;28;89626;-21
2021/07/01 01:21:17;;;;;;;4.78;3.67;;;24.00;63.20;;;;;;4913690;28;87861;-21
2021/07/01 01:23:44;;;;;;;5.68;3.97;;;24.00;63.20;;;;;;4913719;28;87315;-27
2021/07/01 01:26:10;;;;;;;4.82;3.92;;;24.00;63.20;;;;;;4913021;28;87778;-22
2021/07/01 01:28:36;;;;;;;3.83;3.10;;;24.00;63.20;;;;;;4913376;28;87926;-29
2021/07/01 01:31:02;;;;;;;4.25;3.60;;;23.90;63.10;;;;;;4914263;28;87906;-25
2021/07/01 01:33:28;;;;;;;4.53;3.35;;;23.90;63.10;;;;;;4913745;28;87836;-27
2021/07/01 01:35:54;;;;;;;4.95;3.50;;;24.00;63.20;;;;;;4913384;28;87813;-26
2021/07/01 01:38:20;;;;;;;4.78;3.53;;;23.90;63.10;;;;;;4912866;28;88985;-20
2021/07/01 01:40:48;;;;;;;4.55;3.80;;;23.90;63.10;;;;;;4913136;28;88364;-23
2021/07/01 01:43:15;;;;;;;3.72;3.42;;;23.90;63.20;;;;;;4914262;28;87558;-23
2021/07/01 01:45:41;;;;;;;3.75;3.35;;;23.90;63.10;;;;;;4913446;28;87440;-29
2021/07/01 01:48:07;;;;;;;4.25;3.78;;;23.90;63.10;;;;;;4913122;28;87677;-30
2021/07/01 01:50:36;;;;;;;4.63;3.33;;;23.90;63.10;;;;;;4913085;28;88169;-24
2021/07/01 01:53:02;;;;;;;3.92;3.53;;;23.90;63.10;;;;;;4913859;28;87231;-20
2021/07/01 01:55:30;;;;;;;5.70;3.83;;;23.90;63.70;;;;;;4913071;28;87102;-21
2021/07/01 01:57:56;;;;;;;4.15;3.42;;;23.90;63.10;;;;;;4912630;28;88046;-24
2021/07/01 02:00:24;;;;;;;3.90;3.38;;;23.90;63.10;;;;;;4913624;28;88236;-23
2021/07/01 02:02:50;;;;;;;3.95;3.55;;;23.90;63.10;;;;;;4912830;28;88503;-21
2021/07/01 02:05:17;;;;;;;4.78;4.03;;;23.90;63.10;;;;;;4913478;28;88017;-21
2021/07/01 02:07:43;;;;;;;4.15;3.30;;;23.90;63.10;;;;;;4912669;28;87805;-25
2021/07/01 02:10:15;;;;;;;5.07;3.67;;;23.90;63.10;;;;;;4911603;28;90235;-26
2021/07/01 02:12:40;;;;;;;3.70;3.30;;;23.90;63.10;;;;;;4912683;28;87518;-29
2021/07/01 02:15:09;;;;;;;5.35;4.05;;;23.90;63.10;;;;;;4910967;28;88507;-21
2021/07/01 02:17:35;;;;;;;3.75;3.33;;;23.90;63.10;;;;;;4911717;28;88221;-27
2021/07/01 02:20:08;;;;;;;4.22;3.55;;;23.90;63.10;;;;;;4913578;28;87245;-26
2021/07/01 02:22:34;;;;;;;4.32;3.35;;;23.90;63.10;;;;;;4913581;28;87601;-23
2021/07/01 02:25:00;;;;;;;4.57;3.50;;;23.90;63.70;;;;;;4912962;28;88068;-21
2021/07/01 02:27:27;;;;;;;5.45;3.97;;;23.90;63.70;;;;;;4912282;28;88631;-19
2021/07/01 02:29:52;;;;;;;5.22;3.42;;;23.90;63.10;;;;;;4911743;28;89044;-23
2021/07/01 02:32:18;;;;;;;4.70;3.35;;;23.90;63.10;;;;;;4912778;28;87698;-30
2021/07/01 02:34:44;;;;;;;4.53;3.58;;;23.80;63.10;;;;;;4913003;28;88156;-21
2021/07/01 02:37:10;;;;;;;4.30;3.42;;;23.90;63.10;;;;;;4912614;28;88163;-32
2021/07/01 02:39:37;;;;;;;5.03;3.92;;;23.80;63.10;;;;;;4913090;28;88153;-23
2021/07/01 02:42:04;;;;;;;4.35;3.20;;;23.80;63.10;;;;;;4913363;28;87532;-21
2021/07/01 02:44:29;;;;;;;4.28;3.47;;;23.80;63.10;;;;;;4911706;28;88159;-21
2021/07/01 02:46:56;;;;;;;5.45;3.47;;;23.80;63.10;;;;;;4912372;28;88416;-25
2021/07/01 02:49:22;;;;;;;3.88;3.03;;;23.80;63.10;;;;;;4911903;28;87934;-26
2021/07/01 02:51:47;;;;;;;3.70;3.28;;;23.80;63.10;;;;;;4912289;28;89195;-25
2021/07/01 02:54:13;;;;;;;4.07;3.40;;;23.80;63.10;;;;;;4912357;28;87766;-20
2021/07/01 02:56:42;;;;;;;4.72;3.53;;;23.80;63.10;;;;;;4911807;28;88237;-20
2021/07/01 02:59:09;;;;;;;4.05;3.28;;;23.80;63.10;;;;;;4912235;28;88390;-25
2021/07/01 03:01:35;;;;;;;3.90;3.40;;;23.80;63.10;;;;;;4912917;28;87905;-20
2021/07/01 03:04:01;;;;;;;4.93;3.53;;;23.80;63.10;;;;;;4911806;28;88422;-27
2021/07/01 03:06:27;;;;;;;5.03;4.18;;;23.80;63.20;;;;;;4911471;28;88174;-22
2021/07/01 03:08:58;;;;;;;4.97;3.65;;;23.80;63.10;;;;;;4912051;28;87636;-22
2021/07/01 03:11:25;;;;;;;4.45;3.45;;;23.80;63.10;;;;;;4911490;28;87938;-26
2021/07/01 03:13:51;;;;;;;4.03;3.55;;;23.80;63.10;;;;;;4912284;28;87999;-26
2021/07/01 03:16:19;;;;;;;3.88;3.47;;;23.80;63.10;;;;;;4911476;28;88960;-25
2021/07/01 03:18:50;;;;;;;5.60;3.67;;;23.80;63.10;;;;;;4912276;28;88921;-30
2021/07/01 03:21:16;;;;;;;3.90;3.50;;;23.80;63.10;;;;;;4910134;28;87149;-32
2021/07/01 03:23:42;;;;;;;3.67;3.38;;;23.80;63.10;;;;;;4911742;28;87722;-19
2021/07/01 03:26:08;;;;;;;4.40;3.60;;;23.80;63.20;;;;;;4911622;28;87687;-23
2021/07/01 03:28:34;;;;;;;3.47;3.17;;;23.70;63.10;;;;;;4920209;28;88103;-33
2021/07/01 03:30:59;;;;;;;4.75;3.55;;;23.80;63.20;;;;;;4931248;28;87868;-21
2021/07/01 03:33:25;;;;;;;4.10;3.38;;;23.70;63.10;;;;;;4931143;28;86994;-28
2021/07/01 03:35:51;;;;;;;3.90;3.50;;;23.80;63.20;;;;;;4930347;28;88235;-31
2021/07/01 03:38:17;;;;;;;4.13;3.60;;;23.70;63.10;;;;;;4928761;28;90522;-31
2021/07/01 03:40:42;;;;;;;4.97;3.40;;;23.70;63.10;;;;;;4930515;28;88611;-24
2021/07/01 03:43:08;;;;;;;4.20;3.67;;;23.80;63.20;;;;;;4930729;28;89012;-30
2021/07/01 03:45:34;;;;;;;4.47;3.22;;;23.70;63.10;;;;;;4930086;28;88577;-28
2021/07/01 03:47:59;;;;;;;4.32;3.50;;;23.70;63.10;;;;;;4930591;28;88686;-20
2021/07/01 03:50:25;;;;;;;3.67;3.20;;;23.80;63.20;;;;;;4930236;28;87174;-20
2021/07/01 03:52:50;;;;;;;4.57;3.50;;;23.70;63.10;;;;;;4927172;28;87145;-24
2021/07/01 03:55:19;;;;;;;3.35;3.05;;;23.70;63.10;;;;;;4910079;28;90095;-26
2021/07/01 03:57:45;;;;;;;3.83;3.42;;;23.70;63.10;;;;;;4912030;28;87919;-22
2021/07/01 04:00:12;;;;;;;3.83;3.50;;;23.70;63.10;;;;;;4913207;28;88150;-32
2021/07/01 04:02:38;;;;;;;4.38;3.90;;;23.70;63.10;;;;;;4928520;28;90723;-22
2021/07/01 04:05:04;;;;;;;6.20;4.30;;;23.70;63.10;;;;;;4931014;28;88607;-26
2021/07/01 04:07:30;;;;;;;4.05;3.30;;;23.70;63.20;;;;;;4930152;28;88108;-23
2021/07/01 04:12:48;;;;;;;4.28;3.33;;;23.70;63.10;;;;;;4870900;28;87921;-14
2021/07/01 04:15:13;;;;;;;4.03;3.42;;;23.70;63.10;;;;;;4872963;28;87923;-17
2021/07/01 04:17:39;;;;;;;3.80;3.45;;;23.70;63.10;;;;;;4891095;28;87439;-24
2021/07/01 04:20:06;;;;;;;4.10;3.53;;;23.70;63.10;;;;;;4891527;28;88163;-18
2021/07/01 04:22:32;;;;;;;4.85;3.95;;;23.70;63.10;;;;;;4891528;28;87075;-14
2021/07/01 04:24:58;;;;;;;5.28;3.92;;;23.70;63.10;;;;;;4891795;28;88483;-17
2021/07/01 04:27:23;;;;;;;3.90;3.40;;;23.70;63.10;;;;;;4891161;28;88041;-20
2021/07/01 04:29:49;;;;;;;4.55;3.50;;;23.70;63.10;;;;;;4891846;28;89000;-17
2021/07/01 04:32:14;;;;;;;5.07;3.55;;;23.70;63.10;;;;;;4892407;28;88461;-14
2021/07/01 04:34:40;;;;;;;4.25;3.58;;;23.60;63.10;;;;;;4892385;28;88189;-15
2021/07/01 04:37:06;;;;;;;3.13;2.83;;;23.70;63.10;;;;;;4875362;28;88060;-21
2021/07/01 04:39:32;;;;;;;3.97;3.58;;;23.70;63.10;;;;;;4876971;28;87976;-21
2021/07/01 04:41:58;;;;;;;3.83;3.40;;;23.60;63.10;;;;;;4879738;28;87993;-14
2021/07/01 04:44:24;;;;;;;4.18;3.50;;;23.70;63.10;;;;;;4895154;28;88632;-14
2021/07/01 04:46:50;;;;;;;3.80;3.22;;;23.60;63.10;;;;;;4895637;28;88041;-15
2021/07/01 04:49:15;;;;;;;4.35;3.55;;;23.60;63.10;;;;;;4895406;28;87893;-16
2021/07/01 04:51:42;;;;;;;4.95;3.80;;;23.60;63.10;;;;;;4894688;28;88177;-16
2021/07/01 04:54:08;;;;;;;3.70;3.40;;;23.60;63.10;;;;;;4876669;28;89265;-19
2021/07/01 04:56:43;;;;;;;3.95;3.42;;;23.60;63.10;;;;;;4876971;28;88887;-11
2021/07/01 04:59:19;;;;;;;5.43;4.15;;;23.60;63.10;;;;;;4876793;28;87402;-11
2021/07/01 05:01:46;;;;;;;7.32;4.00;;;23.60;63.10;;;;;;4895211;28;87116;-11
2021/07/01 05:04:14;;;;;;;4.18;3.78;;;23.60;63.20;;;;;;4895686;28;88422;-11
2021/07/01 05:06:41;;;;;;;4.30;3.60;;;23.60;63.30;;;;;;4895477;28;87727;-12
2021/07/01 05:09:08;;;;;;;4.70;3.72;;;23.60;63.20;;;;;;4895623;28;87225;-12
2021/07/01 05:11:34;;;;;;;4.00;3.60;;;23.60;63.30;;;;;;4880970;28;88097;-15
2021/07/01 05:14:00;;;;;;;9.43;4.75;;;23.60;63.50;;;;;;4892497;28;90156;-15
2021/07/01 05:16:29;;;;;;;5.75;4.03;;;23.60;63.60;;;;;;4876137;28;87914;-18
2021/07/01 05:18:56;;;;;;;7.10;4.97;;;23.60;63.70;;;;;;4876266;28;89190;-14
2021/07/01 05:21:22;;;;;;;9.35;4.47;;;23.60;63.70;;;;;;4858806;28;89909;-11
2021/07/01 05:23:48;;;;;;;9.07;5.32;;;23.60;63.80;;;;;;4875430;28;88184;-12
2021/07/01 05:26:13;;;;;;;14.43;5.85;;;23.60;63.80;;;;;;4876134;28;88133;-16
2021/07/01 05:28:39;;;;;;;26.15;8.55;;;23.60;63.80;;;;;;4875710;28;87647;-21
2021/07/01 05:31:05;;;;;;;19.45;7.53;;;23.60;63.80;;;;;;4875576;28;88003;-21
2021/07/01 05:33:30;;;;;;;20.35;7.68;;;23.60;63.70;;;;;;4875526;28;89328;-21
2021/07/01 05:35:56;;;;;;;18.08;8.48;;;23.60;63.80;;;;;;4876942;28;87379;-28
2021/07/01 05:38:22;;;;;;;28.80;9.05;;;23.60;63.80;;;;;;4876203;28;87640;-13
2021/07/01 05:40:47;;;;;;;30.10;9.40;;;23.60;63.70;;;;;;4875670;28;88213;-24
2021/07/01 05:43:13;;;;;;;28.55;9.57;;;23.60;63.70;;;;;;4875525;28;89121;-17
2021/07/01 05:45:39;;;;;;;28.70;9.65;;;23.60;63.50;;;;;;4874860;28;89867;-16
2021/07/01 05:48:06;;;;;;;24.20;8.85;;;23.60;63.40;;;;;;4875039;28;87640;-20
2021/07/01 05:50:34;;;;;;;28.58;9.75;;;23.60;63.50;;;;;;4893772;28;88249;-13
2021/07/01 05:53:06;;;;;;;28.35;10.07;;;23.50;63.50;;;;;;4893671;28;88329;-17
2021/07/01 05:55:31;;;;;;;24.38;10.15;;;23.50;63.50;;;;;;4894483;28;87668;-15
2021/07/01 05:57:57;;;;;;;30.95;10.30;;;23.60;63.50;;;;;;4893871;28;87855;-15
2021/07/01 06:00:24;;;;;;;25.20;10.32;;;23.60;63.60;;;;;;4908687;28;88432;-13
2021/07/01 06:02:50;;;;;;;25.33;9.52;;;23.50;63.50;;;;;;4893907;28;87924;-21
2021/07/01 06:05:15;;;;;;;25.10;9.20;;;23.60;63.80;;;;;;4893712;28;88078;-17
2021/07/01 06:07:46;;;;;;;37.85;11.98;;;23.50;63.80;;;;;;4893416;28;89013;-20
2021/07/01 06:10:16;;;;;;;27.25;9.90;;;23.50;63.80;;;;;;4872185;28;87829;-15
2021/07/01 06:12:44;;;;;;;36.67;10.77;;;23.50;63.80;;;;;;4892141;28;88174;-16
2021/07/01 06:15:11;;;;;;;30.42;10.05;;;23.60;64.00;;;;;;4892608;28;87994;-15
2021/07/01 06:17:37;;;;;;;33.67;10.52;;;23.50;64.20;;;;;;4892743;28;87598;-21
2021/07/01 06:20:06;;;;;;;29.52;9.63;;;23.60;64.20;;;;;;4891346;28;87563;-14
2021/07/01 06:22:33;;;;;;;30.50;10.00;;;23.60;64.20;;;;;;4891565;28;89855;-17
2021/07/01 06:24:59;;;;;;;30.88;9.90;;;23.60;63.80;;;;;;4846753;28;88147;-13
2021/07/01 06:27:48;;;;;;;26.48;9.65;;;23.60;64.00;;;;;;4901239;28;88095;-13
2021/07/01 06:30:18;;;;;;;27.05;9.93;;;23.70;64.20;;;;;;4893982;28;88834;-13
2021/07/01 06:32:46;;;;;;;27.48;9.98;;;23.60;64.30;;;;;;4894069;28;88671;-19
2021/07/01 06:35:17;;;;;;;28.40;9.93;;;23.60;64.30;;;;;;4893037;28;88379;-16
2021/07/01 06:37:43;;;;;;;26.45;10.35;;;23.60;64.30;;;;;;4893315;28;87559;-13
2021/07/01 06:40:13;;;;;;;31.50;10.07;;;23.60;64.20;;;;;;4893726;28;87608;-13
2021/07/01 06:42:45;;;;;;;26.77;8.98;;;23.60;64.30;;;;;;4893313;28;88700;-13
2021/07/01 06:45:13;;;;;;;24.95;9.43;;;23.60;64.30;;;;;;4893410;28;88046;-19
2021/07/01 06:47:44;;;;;;;27.00;9.05;;;23.60;64.40;;;;;;4893769;28;87937;-18
2021/07/01 06:50:11;;;;;;;27.30;9.55;;;23.60;64.30;;;;;;4893993;28;86938;-13
2021/07/01 06:52:37;;;;;;;24.33;8.88;;;23.60;64.30;;;;;;4893955;28;87977;-21
2021/07/01 06:55:05;;;;;;;26.73;9.55;;;23.60;64.60;;;;;;4894042;28;87956;-13
2021/07/01 06:57:33;;;;;;;24.05;8.98;;;23.70;64.60;;;;;;4893374;28;89289;-12
2021/07/01 07:00:00;;;;;;;26.65;9.18;;;23.70;64.70;;;;;;4893120;28;87970;-13
2021/07/01 07:02:32;;;;;;;23.70;8.98;;;23.60;64.70;;;;;;4893128;28;88399;-13
2021/07/01 07:05:01;;;;;;;24.17;9.25;;;23.60;64.80;;;;;;4893597;28;87947;-13
2021/07/01 07:07:28;;;;;;;31.17;9.98;;;23.60;64.80;;;;;;4893104;28;88000;-17
2021/07/01 07:09:54;;;;;;;23.38;9.68;;;23.60;64.70;;;;;;4893126;28;87332;-12
2021/07/01 07:12:19;;;;;;;19.80;8.65;;;23.60;64.80;;;;;;4893094;28;87723;-12
2021/07/01 07:14:45;;;;;;;22.63;7.90;;;23.70;64.90;;;;;;4893770;28;89192;-13
2021/07/01 07:17:11;;;;;;;22.50;8.30;;;23.70;64.90;;;;;;4894010;28;87915;-20
2021/07/01 07:19:41;;;;;;;22.45;8.75;;;23.60;64.20;;;;;;4893139;28;88358;-13
2021/07/01 07:22:07;;;;;;;19.25;8.10;;;23.60;63.50;;;;;;4892212;28;89009;-16
2021/07/01 07:24:37;;;;;;;21.70;7.55;;;23.60;62.70;;;;;;4892776;28;88971;-22
2021/07/01 07:27:05;;;;;;;22.02;7.45;;;23.60;61.80;;;;;;4892405;28;88258;-18
2021/07/01 07:29:32;;;;;;;21.60;7.07;;;23.50;61.50;;;;;;4888898;28;87848;-15
2021/07/01 07:32:05;;;;;;;20.42;7.15;;;23.60;62.20;;;;;;4889479;28;88245;-12
2021/07/01 07:34:33;;;;;;;23.17;7.22;;;23.50;62.40;;;;;;4891468;28;88129;-16
2021/07/01 07:36:59;;;;;;;21.42;7.32;;;23.60;62.60;;;;;;4891226;28;87217;-13
2021/07/01 07:39:25;;;;;;;22.20;7.10;;;23.60;62.60;;;;;;4892267;28;87712;-13
2021/07/01 07:41:52;;;;;;;20.33;7.30;;;23.70;62.80;;;;;;4906426;28;88582;-20
2021/07/01 07:44:19;;;;;;;17.58;6.68;;;23.70;62.90;;;;;;4892687;28;88316;-17
2021/07/01 07:46:45;;;;;;;23.80;7.70;;;23.70;62.70;;;;;;4892105;28;88553;-12
2021/07/01 07:49:11;;;;;;;20.75;7.18;;;23.80;62.70;;;;;;4892390;28;87257;-16
2021/07/01 07:51:38;;;;;;;20.48;7.30;;;23.80;62.70;;;;;;4891592;28;88970;-17
2021/07/01 07:54:07;;;;;;;23.02;7.88;;;23.90;62.40;;;;;;4892007;28;88385;-16
2021/07/01 07:56:39;;;;;;;22.33;7.43;;;23.90;62.30;;;;;;4889997;28;88231;-18
2021/07/01 07:59:06;;;;;;;20.90;7.15;;;24.00;62.50;;;;;;4892706;28;88374;-11
2021/07/01 08:01:35;;;;;;;22.35;7.65;;;24.00;62.40;;;;;;4891186;28;87726;-14
2021/07/01 08:04:06;;;;;;;21.88;7.15;;;24.00;62.30;;;;;;4892274;28;87868;-21
2021/07/01 08:06:33;;;;;;;18.83;6.43;;;24.00;62.30;;;;;;4891452;28;88128;-20
2021/07/01 08:09:00;;;;;;;23.33;6.35;;;24.00;62.30;;;;;;4890800;28;88366;-11
2021/07/01 08:11:27;;;;;;;12.65;6.68;;;23.90;62.30;;;;;;4891575;28;89544;-14
2021/07/01 08:14:02;;;;;;;14.27;6.38;;;23.90;62.40;;;;;;4895183;28;88901;-15
2021/07/01 08:16:28;;;;;;;16.42;6.95;;;23.90;62.40;;;;;;4895943;28;88295;-10
2021/07/01 08:19:05;;;;;;;;;;;;;;;;;;;;;
2021/07/01 08:21:31;;;;;;;16.73;6.78;;;23.80;62.50;;;;;;4894148;28;119074;-10
2021/07/01 08:23:58;;;;;;;23.67;6.43;;;23.80;62.60;;;;;;4895381;28;88041;-11
2021/07/01 08:26:24;;;;;;;21.00;7.32;;;23.80;62.60;;;;;;4895696;28;88588;-12
2021/07/01 08:28:51;;;;;;;15.27;7.00;;;23.80;62.80;;;;;;4896180;28;86965;-15
2021/07/01 08:31:18;;;;;;;18.33;7.07;;;23.80;62.80;;;;;;4910363;28;90046;-17
2021/07/01 08:33:49;;;;;;;17.10;6.55;;;23.80;62.80;;;;;;4896566;28;88067;-13
2021/07/01 08:36:20;;;;;;;18.95;6.45;;;23.70;62.80;;;;;;4895099;28;88473;-20
2021/07/01 08:38:48;;;;;;;17.42;7.10;;;23.70;62.90;;;;;;4895376;28;87902;-11
2021/07/01 08:41:18;;;;;;;17.30;6.53;;;23.70;63.00;;;;;;4895476;28;90567;-13
2021/07/01 08:43:54;;;;;;;15.60;6.13;;;23.70;63.00;;;;;;4895826;28;87594;-17
2021/07/01 08:46:27;;;;;;;18.05;6.15;;;23.70;63.00;;;;;;4896376;28;87807;-19
2021/07/01 08:49:07;;;;;;;19.40;7.03;;;23.70;63.00;;;;;;4910094;28;89885;-16
2021/07/01 08:51:43;;;;;;;17.88;6.32;;;23.70;63.00;;;;;;4895150;28;88308;-11
2021/07/01 08:54:24;;;;;;;17.25;7.05;;;23.70;63.10;;;;;;4895740;28;87338;-13
2021/07/01 08:56:52;;;;;;;16.48;6.53;;;23.70;63.10;;;;;;4895192;28;87970;-18
2021/07/01 08:59:20;;;;;;;17.02;6.80;;;23.70;63.20;;;;;;4895202;28;87631;-14
2021/07/01 09:02:08;;;;;;;15.13;6.75;;;23.70;63.20;;;;;;4894860;28;89388;-11
2021/07/01 09:04:47;;;;;;;16.17;6.55;;;23.70;63.10;;;;;;4894890;28;89664;-17
2021/07/01 09:07:20;;;;;;;12.13;5.93;;;23.60;63.00;;;;;;4894158;28;88261;-19
2021/07/01 09:09:55;;;;;;;21.45;7.20;;;23.60;63.10;;;;;;4894555;28;87143;-15
2021/07/01 09:12:24;;;;;;;16.92;6.30;;;23.70;63.10;;;;;;4894769;28;91186;-19
2021/07/01 09:15:01;;;;;;;14.38;6.95;;;23.60;63.00;;;;;;4877002;28;91142;-11
2021/07/01 09:17:29;;;;;;;13.10;6.10;;;23.70;63.10;;;;;;4894450;28;87527;-13
2021/07/01 09:19:56;;;;;;;17.65;6.32;;;23.70;63.00;;;;;;4892567;28;86987;-19
2021/07/01 09:22:24;;;;;;;13.75;6.00;;;23.70;63.10;;;;;;4893903;28;87562;-12
2021/07/01 09:24:52;;;;;;;24.00;7.32;;;23.70;63.10;;;;;;4894683;28;88002;-20
2021/07/01 09:27:18;;;;;;;13.65;5.63;;;23.70;63.20;;;;;;4894686;28;88747;-14
2021/07/01 09:29:46;;;;;;;15.23;6.20;;;23.70;63.20;;;;;;4893016;28;87913;-15
2021/07/01 09:32:13;;;;;;;17.85;6.38;;;23.70;63.10;;;;;;4891828;28;87692;-14
2021/07/01 09:34:40;;;;;;;17.60;6.18;;;23.70;63.20;;;;;;4893813;28;87917;-11
2021/07/01 09:37:07;;;;;;;15.73;6.05;;;23.70;63.30;;;;;;4893941;28;87896;-15
2021/07/01 09:39:33;;;;;;;23.23;7.18;;;23.70;63.30;;;;;;4894679;28;87539;-11
2021/07/01 09:42:01;;;;;;;26.25;7.47;;;23.70;63.10;;;;;;4894244;28;88202;-11
2021/07/01 09:44:28;;;;;;;21.45;6.82;;;23.80;63.10;;;;;;4894723;28;88015;-10
2021/07/01 09:46:59;;;;;;;16.17;7.35;;;23.80;62.80;;;;;;4893929;28;87948;-11
2021/07/01 09:49:34;;;;;;;20.88;7.68;;;23.80;62.60;;;;;;4894413;28;87099;-19
2021/07/01 09:52:12;;;;;;;20.95;7.40;;;23.90;62.70;;;;;;4893688;28;89086;-21
2021/07/01 09:54:39;;;;;;;21.20;7.93;;;23.90;62.60;;;;;;4893761;28;88386;-17
2021/07/01 09:57:15;;;;;;;24.08;7.97;;;24.00;62.50;;;;;;4893053;28;87427;-12
2021/07/01 10:00:02;;;;;;;19.25;6.72;;;24.10;62.40;;;;;;4894111;28;87249;-20
2021/07/01 10:02:29;;;;;;;19.15;8.70;;;24.10;62.40;;;;;;4893395;28;88304;-13
2021/07/01 10:04:57;;;;;;;18.63;7.28;;;24.10;62.40;;;;;;4893333;28;87818;-12
2021/07/01 10:07:25;;;;;;;24.48;7.63;;;24.20;62.30;;;;;;4893131;28;87128;-12
2021/07/01 10:09:56;;;;;;;22.42;7.47;;;24.20;62.10;;;;;;4893287;28;87240;-20
2021/07/01 10:12:24;;;;;;;23.67;6.90;;;24.20;62.10;;;;;;4892629;28;88753;-12
2021/07/01 10:14:51;;;;;;;20.13;8.27;;;24.20;62.30;;;;;;4893258;28;87870;-18
2021/07/01 10:17:21;;;;;;;16.38;7.38;;;24.20;62.10;;;;;;4893528;28;89536;-13
2021/07/01 10:20:01;;;;;;;19.70;6.88;;;24.30;62.10;;;;;;4892876;28;87953;-11
2021/07/01 10:22:39;;;;;;;17.40;6.32;;;24.30;61.80;;;;;;4892778;28;88436;-10
2021/07/01 10:25:06;;;;;;;18.38;7.15;;;24.30;61.90;;;;;;4893270;28;88249;-12
2021/07/01 10:27:39;;;;;;;24.75;7.80;;;24.30;61.90;;;;;;4893550;28;87514;-11
2021/07/01 10:30:32;;;;;;;12.48;6.55;;;24.30;61.70;;;;;;4893969;28;87948;-11
2021/07/01 10:32:57;;;;;;;21.23;7.03;;;24.40;61.50;;;;;;4893089;28;88179;-21
2021/07/01 10:35:27;;;;;;;17.90;6.70;;;24.40;61.50;;;;;;4907639;28;89589;-14
2021/07/01 10:38:11;;;;;;;18.02;6.75;;;24.40;61.50;;;;;;4893767;28;88107;-14
2021/07/01 10:40:43;;;;;;;13.15;6.40;;;24.40;61.50;;;;;;4893426;28;87435;-12
2021/07/01 10:43:09;;;;;;;19.17;6.80;;;24.40;61.40;;;;;;4892678;28;90777;-15
2021/07/01 10:45:36;;;;;;;13.38;6.22;;;24.40;61.40;;;;;;4893831;28;88182;-21
2021/07/01 10:48:17;;;;;;;16.48;6.13;;;24.40;61.30;;;;;;4893810;28;87556;-12
2021/07/01 10:50:47;;;;;;;11.02;5.65;;;24.40;61.50;;;;;;4893119;28;88224;-17
2021/07/01 10:53:31;;;;;;;22.05;5.78;;;24.40;61.50;;;;;;4893136;28;88237;-21
2021/07/01 10:56:01;;;;;;;16.35;6.28;;;24.40;61.50;;;;;;4907435;28;88036;-12
2021/07/01 10:58:27;;;;;;;14.63;5.80;;;24.40;61.40;;;;;;4893547;28;88225;-10
2021/07/01 11:00:53;;;;;;;16.38;5.75;;;24.50;61.30;;;;;;4892971;28;86565;-12
2021/07/01 11:03:21;;;;;;;15.20;6.13;;;24.50;61.20;;;;;;4892661;28;89495;-11
2021/07/01 11:05:48;;;;;;;14.75;6.30;;;24.50;61.20;;;;;;4892551;28;88105;-14
2021/07/01 11:08:34;;;;;;;19.77;6.55;;;24.50;61.30;;;;;;4892343;28;88877;-12
2021/07/01 11:11:02;;;;;;;15.20;5.78;;;24.50;61.20;;;;;;4906421;28;88028;-13
2021/07/01 11:13:29;;;;;;;11.50;4.88;;;24.50;61.40;;;;;;4892377;28;88205;-23
2021/07/01 11:16:14;;;;;;;11.55;5.53;;;24.50;61.30;;;;;;4892904;28;87982;-11
2021/07/01 11:18:41;;;;;;;12.07;5.03;;;24.50;61.30;;;;;;4892984;28;87782;-11
2021/07/01 11:21:13;;;;;;;22.38;5.63;;;24.60;61.30;;;;;;4892157;28;88158;-21
2021/07/01 11:23:40;;;;;;;28.08;6.05;;;24.60;61.30;;;;;;4891707;28;87883;-12
2021/07/01 11:26:21;;;;;;;15.00;5.30;;;24.60;61.20;;;;;;4892921;28;87852;-20
2021/07/01 11:28:47;;;;;;;12.48;5.30;;;24.60;61.20;;;;;;4892627;28;87778;-10
2021/07/01 11:31:12;;;;;;;11.38;4.78;;;24.60;61.00;;;;;;4891533;28;87262;-17
2021/07/01 11:33:38;;;;;;;16.23;5.78;;;24.60;61.10;;;;;;4905090;28;91315;-17
2021/07/01 11:36:11;;;;;;;13.25;5.47;;;24.60;61.10;;;;;;4892864;28;88991;-15
2021/07/01 11:38:38;;;;;;;20.92;5.20;;;24.60;61.20;;;;;;4892552;28;88279;-13
2021/07/01 11:41:04;;;;;;;17.88;6.38;;;24.60;61.20;;;;;;4890563;28;87780;-15
2021/07/01 11:43:32;;;;;;;17.05;5.35;;;24.60;61.10;;;;;;4891233;28;88372;-12
2021/07/01 11:45:58;;;;;;;11.77;5.07;;;24.60;61.00;;;;;;4893428;28;87983;-13
2021/07/01 11:48:27;;;;;;;15.90;5.95;;;24.60;61.00;;;;;;4898114;28;88241;-15
2021/07/01 11:50:57;;;;;;;12.43;5.53;;;24.60;61.00;;;;;;4898629;28;88373;-16
2021/07/01 11:53:23;;;;;;;16.40;5.20;;;24.60;61.00;;;;;;4898030;28;87945;-23
2021/07/01 11:55:51;;;;;;;10.80;5.32;;;24.60;60.90;;;;;;4871487;28;88047;-15
2021/07/01 11:58:19;;;;;;;13.40;5.65;;;24.60;60.90;;;;;;4902597;28;89078;-12
2021/07/01 12:00:47;;;;;;;16.40;5.75;;;24.60;60.80;;;;;;4898234;28;87371;-15
2021/07/01 12:03:14;;;;;;;11.05;5.00;;;24.60;60.90;;;;;;4898091;28;88395;-14
2021/07/01 12:05:51;;;;;;;13.15;5.40;;;24.70;60.90;;;;;;4897134;28;87934;-16
2021/07/01 12:08:18;;;;;;;9.50;5.47;;;24.70;60.80;;;;;;4911853;28;87661;-16
2021/07/01 12:10:44;;;;;;;13.18;4.63;;;24.70;60.80;;;;;;4897287;28;88131;-12
2021/07/01 12:13:32;;;;;;;17.25;5.20;;;24.70;60.80;;;;;;4898045;28;88125;-12
2021/07/01 12:16:02;;;;;;;15.90;5.85;;;24.70;60.80;;;;;;4898218;28;87986;-20
2021/07/01 12:18:57;;;;;;;13.80;5.13;;;24.60;60.70;;;;;;4890368;28;87802;-14
2021/07/01 12:21:31;;;;;;;20.17;5.65;;;24.60;60.80;;;;;;4897699;28;87442;-18
2021/07/01 12:23:59;;;;;;;12.98;5.40;;;24.60;60.80;;;;;;4896883;28;89057;-12
2021/07/01 12:26:40;;;;;;;16.10;5.03;;;24.60;60.80;;;;;;4898231;28;88836;-19
2021/07/01 12:29:11;;;;;;;12.30;5.53;;;24.60;60.80;;;;;;4898749;28;87271;-16
2021/07/01 12:31:38;;;;;;;11.85;4.82;;;24.60;60.70;;;;;;4897353;28;87849;-13
2021/07/01 12:34:07;;;;;;;15.52;5.03;;;24.60;60.70;;;;;;4882457;28;88228;-14
2021/07/01 12:36:42;;;;;;;22.77;6.07;;;24.60;60.70;;;;;;4898152;28;88318;-20
2021/07/01 12:39:08;;;;;;;15.40;5.28;;;24.60;60.50;;;;;;4898282;28;88011;-11
2021/07/01 12:41:54;;;;;;;12.15;5.32;;;24.60;60.40;;;;;;4896911;28;87762;-21
2021/07/01 12:44:33;;;;;;;12.73;5.20;;;24.60;60.00;;;;;;4897591;28;88248;-23
2021/07/01 12:47:04;;;;;;;11.60;4.97;;;24.60;60.30;;;;;;4897153;28;88062;-14
2021/07/01 12:49:33;;;;;;;14.23;4.75;;;24.60;60.30;;;;;;4896935;28;88296;-16
2021/07/01 12:52:18;;;;;;;17.67;4.78;;;24.70;59.70;;;;;;4896809;28;87581;-18